createdAt,value
2023-04-12T00:01:06.991Z,18.77
2023-04-12T00:03:34.849Z,19.20
2023-04-12T00:06:07.425Z,17.55
2023-04-12T00:08:35.496Z,18.52
2023-04-12T00:11:03.875Z,18.73
2023-04-12T00:13:30.940Z,17.63
2023-04-12T00:15:58.272Z,17.83
2023-04-12T00:18:26.193Z,16.95
2023-04-12T00:20:53.646Z,19.23
2023-04-12T00:23:21.127Z,20.80
2023-04-12T00:25:48.247Z,17.75
2023-04-12T00:28:18.709Z,21.30
2023-04-12T00:30:46.232Z,18.15
2023-04-12T00:33:13.273Z,20.30
2023-04-12T00:35:40.535Z,14.85
2023-04-12T00:38:10.818Z,17.25
2023-04-12T00:40:47.114Z,15.48
2023-04-12T00:43:19.005Z,14.73
2023-04-12T00:45:49.778Z,14.45
2023-04-12T00:48:17.226Z,14.18
2023-04-12T00:50:47.747Z,13.13
2023-04-12T00:53:15.837Z,15.32
2023-04-12T00:55:45.163Z,14.75
2023-04-12T00:58:12.488Z,13.88
2023-04-12T01:00:40.341Z,15.27
2023-04-12T01:03:08.908Z,13.48
2023-04-12T01:05:43.979Z,13.60
2023-04-12T01:08:40.932Z,15.25
2023-04-12T01:11:20.661Z,16.05
2023-04-12T01:14:08.199Z,14.57
2023-04-12T01:16:46.291Z,16.25
2023-04-12T01:19:53.732Z,17.27
2023-04-12T01:22:34.971Z,13.82
2023-04-12T01:25:24.597Z,16.48
2023-04-12T01:28:03.703Z,15.93
2023-04-12T01:30:32.715Z,14.93
2023-04-12T01:33:06.931Z,15.45
2023-04-12T01:35:35.269Z,14.65
2023-04-12T01:38:04.402Z,16.30
2023-04-12T01:40:31.893Z,16.33
2023-04-12T01:43:08.067Z,14.63
2023-04-12T01:45:35.727Z,15.10
2023-04-12T01:48:04.594Z,16.17
2023-04-12T01:50:49.620Z,17.15
2023-04-12T01:53:39.632Z,16.67
2023-04-12T01:56:11.203Z,16.42
2023-04-12T01:58:40.524Z,14.57
2023-04-12T02:01:09.287Z,18.38
2023-04-12T02:03:37.766Z,17.02
2023-04-12T02:06:06.006Z,17.17
2023-04-12T02:08:33.504Z,14.80
2023-04-12T02:11:00.757Z,16.25
2023-04-12T02:13:27.779Z,17.92
2023-04-12T02:15:55.463Z,16.85
2023-04-12T02:18:24.502Z,15.07
2023-04-12T02:20:51.509Z,15.40
2023-04-12T02:23:18.446Z,14.65
2023-04-12T02:25:46.739Z,15.63
2023-04-12T02:28:14.131Z,15.45
2023-04-12T02:30:44.089Z,15.73
2023-04-12T02:33:12.027Z,13.23
2023-04-12T02:35:39.156Z,15.40
2023-04-12T02:38:08.634Z,14.40
2023-04-12T02:40:41.024Z,15.45
2023-04-12T02:43:08.617Z,13.18
2023-04-12T02:45:36.524Z,13.10
2023-04-12T02:48:05.531Z,13.02
2023-04-12T02:50:32.793Z,15.63
2023-04-12T02:52:59.985Z,16.23
2023-04-12T02:55:27.348Z,13.75
2023-04-12T02:57:55.202Z,15.10
2023-04-12T03:00:22.575Z,15.27
2023-04-12T03:02:53.128Z,14.57
2023-04-12T03:05:20.531Z,12.80
2023-04-12T03:07:47.544Z,13.30
2023-04-12T03:10:14.622Z,15.50
2023-04-12T03:12:41.610Z,13.32
2023-04-12T03:15:09.348Z,13.65
2023-04-12T03:17:36.497Z,14.70
2023-04-12T03:20:09.992Z,12.23
2023-04-12T03:22:37.766Z,14.00
2023-04-12T03:25:05.823Z,15.07
2023-04-12T03:27:33.432Z,16.08
2023-04-12T03:30:00.693Z,14.70
2023-04-12T03:32:27.797Z,16.05
2023-04-12T03:34:55.595Z,15.15
2023-04-12T03:37:22.662Z,16.10
2023-04-12T03:39:49.621Z,15.48
2023-04-12T03:42:29.967Z,15.63
2023-04-12T03:45:00.451Z,15.80
2023-04-12T03:47:27.668Z,15.55
2023-04-12T03:50:10.227Z,14.80
2023-04-12T03:52:39.182Z,17.35
2023-04-12T03:55:07.884Z,17.08
2023-04-12T03:57:35.468Z,16.60
2023-04-12T04:00:02.848Z,15.90
2023-04-12T04:02:31.986Z,16.50
2023-04-12T04:04:59.359Z,17.27
2023-04-12T04:07:26.827Z,17.90
2023-04-12T04:09:55.423Z,27.45
2023-04-12T04:12:22.445Z,17.38
2023-04-12T04:14:49.409Z,17.05
2023-04-12T04:17:16.418Z,15.85
2023-04-12T04:19:43.481Z,17.70
2023-04-12T04:22:12.608Z,18.73
2023-04-12T04:24:40.540Z,16.48
2023-04-12T04:27:07.577Z,21.67
2023-04-12T04:29:34.695Z,18.75
2023-04-12T04:32:01.747Z,18.30
2023-04-12T04:34:28.821Z,19.08
2023-04-12T04:36:55.952Z,18.40
2023-04-12T04:39:23.196Z,21.13
2023-04-12T04:41:55.079Z,18.42
2023-04-12T04:44:22.637Z,21.10
2023-04-12T04:46:49.719Z,21.85
2023-04-12T04:49:16.831Z,24.13
2023-04-12T04:51:44.485Z,20.45
2023-04-12T04:54:11.535Z,21.63
2023-04-12T04:56:38.496Z,22.48
2023-04-12T04:59:05.526Z,24.75
2023-04-12T05:01:36.311Z,22.13
2023-04-12T05:04:04.341Z,22.50
2023-04-12T05:06:31.499Z,22.98
2023-04-12T05:08:58.861Z,24.95
2023-04-12T05:11:26.231Z,24.60
2023-04-12T05:13:53.569Z,25.35
2023-04-12T05:16:20.584Z,22.92
2023-04-12T05:18:47.666Z,23.65
2023-04-12T05:21:14.577Z,24.45
2023-04-12T05:23:47.487Z,23.90
2023-04-12T05:26:14.692Z,24.42
2023-04-12T05:28:41.877Z,23.58
2023-04-12T05:31:09.188Z,24.90
2023-04-12T05:33:36.924Z,24.92
2023-04-12T05:36:04.971Z,22.80
2023-04-12T05:38:32.448Z,21.65
2023-04-12T05:40:59.456Z,23.65
2023-04-12T05:43:26.686Z,22.50
2023-04-12T05:45:53.810Z,22.55
2023-04-12T05:48:21.441Z,23.05
2023-04-12T05:50:52.560Z,18.70
2023-04-12T05:53:19.751Z,18.88
2023-04-12T05:55:46.738Z,19.95
2023-04-12T05:58:13.810Z,33.28
2023-04-12T06:00:44.307Z,16.83
2023-04-12T06:03:12.316Z,18.67
2023-04-12T06:05:39.587Z,25.98
2023-04-12T06:08:06.771Z,15.65
2023-04-12T06:10:33.917Z,13.35
2023-04-12T06:13:01.003Z,14.35
2023-04-12T06:15:28.293Z,14.52
2023-04-12T06:17:55.393Z,15.35
2023-04-12T06:20:22.517Z,14.00
2023-04-12T06:22:49.449Z,13.93
2023-04-12T06:25:16.861Z,14.82
2023-04-12T06:27:44.160Z,12.52
2023-04-12T06:30:11.497Z,10.18
2023-04-12T06:32:38.975Z,10.05
2023-04-12T06:35:06.599Z,10.20
2023-04-12T06:37:33.707Z,8.95
2023-04-12T06:40:00.852Z,11.18
2023-04-12T06:42:27.870Z,9.85
2023-04-12T06:44:54.834Z,9.43
2023-04-12T06:47:22.925Z,8.60
2023-04-12T06:49:53.857Z,8.18
2023-04-12T06:52:25.713Z,8.63
2023-04-12T06:54:53.603Z,7.78
2023-04-12T06:57:20.779Z,8.77
2023-04-12T06:59:47.835Z,9.15
2023-04-12T07:02:14.975Z,9.10
2023-04-12T07:04:42.023Z,8.13
2023-04-12T07:07:10.517Z,8.40
2023-04-12T07:09:37.954Z,9.38
2023-04-12T07:12:05.282Z,8.52
2023-04-12T07:14:32.444Z,9.32
2023-04-12T07:17:01.090Z,7.53
2023-04-12T07:19:29.955Z,8.10
2023-04-12T07:24:24.408Z,8.07
2023-04-12T07:26:54.574Z,7.97
2023-04-12T07:29:21.997Z,8.55
2023-04-12T07:31:49.008Z,7.82
2023-04-12T07:34:16.235Z,6.82
2023-04-12T07:36:45.086Z,7.65
2023-04-12T07:39:15.231Z,8.13
2023-04-12T07:41:46.391Z,7.93
2023-04-12T07:44:13.513Z,8.48
2023-04-12T07:46:42.121Z,8.60
2023-04-12T07:49:10.862Z,8.13
2023-04-12T07:54:05.045Z,9.02
2023-04-12T07:56:34.819Z,8.68
2023-04-12T07:59:02.089Z,8.75
2023-04-12T08:01:29.179Z,9.05
2023-04-12T08:03:56.646Z,8.40
2023-04-12T08:06:24.013Z,7.53
2023-04-12T08:08:51.044Z,6.38
2023-04-12T08:11:18.291Z,7.47
2023-04-12T08:13:45.339Z,7.25
2023-04-12T08:16:13.411Z,7.15
2023-04-12T08:18:40.522Z,8.20
2023-04-12T08:21:07.517Z,7.03
2023-04-12T08:23:34.577Z,7.43
2023-04-12T08:26:04.678Z,8.55
2023-04-12T08:28:32.128Z,8.85
2023-04-12T08:30:59.770Z,8.13
2023-04-12T08:33:27.303Z,7.75
2023-04-12T08:35:55.404Z,8.30
2023-04-12T08:38:30.663Z,8.23
2023-04-12T08:41:05.885Z,8.73
2023-04-12T08:43:34.636Z,5.68
2023-04-12T08:46:02.284Z,6.97
2023-04-12T08:48:29.542Z,7.20
2023-04-12T08:50:57.911Z,7.15
2023-04-12T08:53:25.006Z,6.95
2023-04-12T08:55:52.307Z,8.27
2023-04-12T08:58:21.061Z,8.43
2023-04-12T09:00:48.901Z,8.75
2023-04-12T09:03:16.330Z,8.55
2023-04-12T09:05:43.737Z,9.20
2023-04-12T09:08:12.122Z,9.27
2023-04-12T09:10:39.276Z,9.60
2023-04-12T09:13:06.919Z,9.48
2023-04-12T09:15:34.568Z,8.75
2023-04-12T09:18:19.796Z,9.38
2023-04-12T09:20:46.840Z,8.38
2023-04-12T09:23:18.760Z,9.57
2023-04-12T09:25:46.119Z,8.60
2023-04-12T09:28:27.531Z,8.95
2023-04-12T09:30:55.797Z,9.00
2023-04-12T09:33:32.575Z,7.50
2023-04-12T09:36:04.315Z,7.90
2023-04-12T09:38:32.399Z,8.68
2023-04-12T09:41:22.546Z,8.18
2023-04-12T09:43:53.415Z,8.23
2023-04-12T09:46:20.602Z,9.45
2023-04-12T09:48:55.269Z,7.97
2023-04-12T09:51:31.496Z,9.15
2023-04-12T09:54:05.940Z,8.10
2023-04-12T09:56:39.326Z,8.63
2023-04-12T09:59:07.690Z,8.32
2023-04-12T10:01:42.511Z,8.75
2023-04-12T10:04:10.224Z,10.80
2023-04-12T10:06:37.754Z,6.80
2023-04-12T10:09:05.694Z,5.13
2023-04-12T10:11:34.377Z,5.45
2023-04-12T10:16:40.697Z,5.93
2023-04-12T10:19:09.819Z,5.63
2023-04-12T10:21:36.775Z,5.15
2023-04-12T10:24:04.066Z,8.18
2023-04-12T10:26:31.825Z,6.72
2023-04-12T10:29:31.349Z,7.60
2023-04-12T10:32:19.570Z,7.55
2023-04-12T10:34:52.512Z,8.02
2023-04-12T10:37:20.660Z,7.97
2023-04-12T10:39:54.768Z,7.03
2023-04-12T10:42:28.503Z,7.55
2023-04-12T10:44:58.698Z,6.78
2023-04-12T10:47:49.351Z,7.43
2023-04-12T10:50:24.835Z,7.78
2023-04-12T10:53:12.839Z,6.75
2023-04-12T10:55:42.819Z,6.72
2023-04-12T10:58:09.963Z,7.68
2023-04-12T11:00:58.858Z,6.93
2023-04-12T11:03:28.442Z,6.70
2023-04-12T11:06:20.163Z,7.00
2023-04-12T11:08:56.588Z,6.88
2023-04-12T11:11:27.689Z,8.45
2023-04-12T11:13:57.127Z,8.02
2023-04-12T11:16:24.324Z,7.60
2023-04-12T11:18:55.456Z,6.45
2023-04-12T11:21:22.705Z,6.13
2023-04-12T11:23:51.360Z,6.82
2023-04-12T11:26:22.343Z,6.30
2023-04-12T11:28:53.300Z,6.35
2023-04-12T11:31:22.104Z,6.20
2023-04-12T11:36:16.639Z,6.18
2023-04-12T11:38:46.373Z,7.50
2023-04-12T11:41:15.108Z,5.32
2023-04-12T11:43:42.810Z,6.10
2023-04-12T11:46:10.167Z,6.20
2023-04-12T11:48:39.060Z,5.97
2023-04-12T11:51:25.407Z,6.00
2023-04-12T11:53:54.275Z,6.00
2023-04-12T11:56:22.007Z,5.70
2023-04-12T11:58:50.511Z,5.20
2023-04-12T12:01:22.265Z,5.70
2023-04-12T12:03:50.974Z,5.53
2023-04-12T12:06:21.873Z,6.15
2023-04-12T12:08:52.239Z,5.63
2023-04-12T12:11:23.887Z,7.82
2023-04-12T12:13:55.278Z,6.40
2023-04-12T12:16:29.712Z,7.60
2023-04-12T12:18:58.091Z,7.63
2023-04-12T12:21:27.596Z,7.07
2023-04-12T12:23:57.327Z,6.50
2023-04-12T12:26:26.345Z,6.55
2023-04-12T12:28:58.156Z,6.63
2023-04-12T12:31:28.273Z,8.25
2023-04-12T12:33:57.516Z,6.72
2023-04-12T12:36:36.472Z,6.82
2023-04-12T12:39:07.456Z,6.93
2023-04-12T12:41:35.442Z,6.88
2023-04-12T12:44:02.617Z,6.05
2023-04-12T12:46:44.749Z,6.13
2023-04-12T12:49:17.954Z,6.20
2023-04-12T12:51:45.278Z,7.28
2023-04-12T12:54:12.456Z,8.70
2023-04-12T12:56:39.562Z,7.93
2023-04-12T12:59:06.789Z,7.55
2023-04-12T13:01:33.986Z,7.78
2023-04-12T13:04:01.564Z,7.78
2023-04-12T13:06:29.083Z,7.28
2023-04-12T13:08:56.482Z,7.38
2023-04-12T13:11:23.960Z,6.75
2023-04-12T13:13:50.940Z,7.18
2023-04-12T13:16:18.041Z,6.65
2023-04-12T13:18:45.503Z,8.60
2023-04-12T13:21:12.556Z,7.93
2023-04-12T13:23:39.582Z,7.63
2023-04-12T13:26:06.941Z,7.43
2023-04-12T13:28:34.041Z,7.18
2023-04-12T13:31:01.813Z,8.13
2023-04-12T13:33:28.873Z,7.40
2023-04-12T13:35:55.864Z,6.95
2023-04-12T13:38:22.917Z,7.38
2023-04-12T13:40:50.014Z,7.95
2023-04-12T13:43:17.278Z,7.30
2023-04-12T13:45:45.077Z,6.15
2023-04-12T13:48:12.246Z,6.93
2023-04-12T13:50:39.570Z,7.82
2023-04-12T13:53:07.241Z,6.97
2023-04-12T13:55:34.188Z,7.43
2023-04-12T13:58:01.570Z,6.50
2023-04-12T14:00:28.777Z,8.02
2023-04-12T14:02:56.785Z,6.28
2023-04-12T14:05:24.007Z,8.00
2023-04-12T14:07:52.654Z,6.55
2023-04-12T14:10:19.825Z,7.15
2023-04-12T14:12:47.072Z,7.25
2023-04-12T14:15:14.231Z,7.00
2023-04-12T14:17:41.363Z,7.60
2023-04-12T14:20:12.830Z,6.95
2023-04-12T14:22:39.920Z,7.68
2023-04-12T14:25:08.238Z,6.63
2023-04-12T14:27:35.558Z,8.25
2023-04-12T14:30:02.960Z,7.40
2023-04-12T14:32:30.616Z,6.32
2023-04-12T14:34:57.622Z,7.43
2023-04-12T14:37:24.783Z,6.95
2023-04-12T14:39:53.820Z,7.53
2023-04-12T14:42:21.108Z,8.25
2023-04-12T14:44:48.391Z,6.57
2023-04-12T14:47:15.488Z,7.13
2023-04-12T14:49:42.582Z,7.22
2023-04-12T14:52:09.634Z,8.18
2023-04-12T14:54:36.556Z,9.02
2023-04-12T14:57:05.112Z,7.88
2023-04-12T14:59:32.628Z,7.05
2023-04-12T15:02:00.212Z,7.55
2023-04-12T15:04:27.653Z,7.85
2023-04-12T15:06:54.893Z,7.53
2023-04-12T15:09:22.127Z,7.13
2023-04-12T15:12:01.149Z,10.98
2023-04-12T15:14:29.020Z,8.82
2023-04-12T15:16:56.371Z,8.13
2023-04-12T15:19:24.270Z,9.77
2023-04-12T15:21:52.538Z,8.73
2023-04-12T15:24:20.021Z,10.50
2023-04-12T15:26:48.728Z,9.85
2023-04-12T15:29:19.519Z,9.30
2023-04-12T15:31:47.446Z,9.52
2023-04-12T15:34:14.667Z,9.57
2023-04-12T15:36:43.412Z,9.02
2023-04-12T15:39:11.489Z,10.93
2023-04-12T15:41:40.342Z,11.80
2023-04-12T15:44:09.215Z,10.02
2023-04-12T15:46:36.587Z,10.07
2023-04-12T15:49:04.127Z,11.52
2023-04-12T15:51:32.670Z,9.30
2023-04-12T15:54:00.238Z,9.05
2023-04-12T15:56:27.972Z,13.15
2023-04-12T15:58:57.655Z,13.18
2023-04-12T16:01:25.718Z,12.73
2023-04-12T16:03:53.553Z,11.68
2023-04-12T16:06:21.293Z,15.30
2023-04-12T16:08:53.721Z,15.15
2023-04-12T16:11:24.158Z,18.40
2023-04-12T16:16:19.974Z,19.40
2023-04-12T16:18:47.708Z,20.65
2023-04-12T16:21:20.244Z,19.67
2023-04-12T16:23:49.250Z,21.90
2023-04-12T16:26:24.220Z,18.33
2023-04-12T16:28:53.590Z,16.10
2023-04-12T16:31:21.507Z,17.73
2023-04-12T16:33:51.240Z,17.08
2023-04-12T16:36:19.276Z,16.95
2023-04-12T16:38:46.628Z,16.02
2023-04-12T16:41:14.092Z,14.98
2023-04-12T16:43:43.408Z,14.07
2023-04-12T16:46:12.808Z,14.68
2023-04-12T16:48:41.512Z,18.90
2023-04-12T16:51:09.168Z,18.67
2023-04-12T16:53:37.364Z,18.60
2023-04-12T16:56:07.710Z,15.05
2023-04-12T16:58:34.876Z,14.88
2023-04-12T17:01:02.225Z,14.52
2023-04-12T17:03:38.928Z,14.00
2023-04-12T17:06:06.623Z,13.88
2023-04-12T17:08:33.955Z,15.88
2023-04-12T17:11:01.780Z,18.17
2023-04-12T17:13:30.792Z,18.40
2023-04-12T17:15:58.199Z,17.23
2023-04-12T17:18:26.202Z,17.27
2023-04-12T17:20:53.896Z,17.00
2023-04-12T17:23:21.396Z,18.73
2023-04-12T17:25:49.299Z,22.02
2023-04-12T17:28:16.561Z,21.23
2023-04-12T17:30:44.294Z,19.05
2023-04-12T17:33:12.609Z,18.02
2023-04-12T17:35:41.047Z,17.15
2023-04-12T17:38:08.578Z,19.90
2023-04-12T17:40:35.632Z,18.15
2023-04-12T17:43:03.724Z,21.85
2023-04-12T17:45:31.306Z,20.92
2023-04-12T17:47:58.521Z,24.35
2023-04-12T17:50:25.975Z,30.65
2023-04-12T17:52:53.319Z,44.28
2023-04-12T17:55:23.770Z,47.72
2023-04-12T17:57:50.954Z,41.30
2023-04-12T18:00:19.262Z,42.33
2023-04-12T18:02:47.248Z,39.78
2023-04-12T18:05:14.663Z,43.53
2023-04-12T18:07:43.560Z,47.50
2023-04-12T18:10:15.794Z,44.88
2023-04-12T18:12:46.723Z,44.38
2023-04-12T18:15:13.827Z,46.30
2023-04-12T18:17:41.004Z,42.25
2023-04-12T18:20:10.916Z,40.85
2023-04-12T18:22:39.176Z,41.85
2023-04-12T18:25:09.809Z,44.80
2023-04-12T18:30:05.192Z,42.30
2023-04-12T18:32:32.644Z,45.83
2023-04-12T18:34:59.937Z,59.85
2023-04-12T18:37:27.680Z,77.55
2023-04-12T18:39:55.680Z,71.57
2023-04-12T18:42:22.790Z,73.45
2023-04-12T18:44:49.840Z,60.47
2023-04-12T18:47:16.982Z,48.50
2023-04-12T18:49:44.020Z,47.13
2023-04-12T18:52:11.136Z,49.40
2023-04-12T18:54:38.188Z,43.40
2023-04-12T18:57:05.194Z,39.08
2023-04-12T18:59:32.391Z,42.35
2023-04-12T19:01:59.543Z,58.03
2023-04-12T19:04:26.698Z,62.67
2023-04-12T19:06:53.833Z,47.10
2023-04-12T19:09:20.814Z,50.13
2023-04-12T19:11:47.896Z,54.10
2023-04-12T19:14:15.083Z,59.72
2023-04-12T19:16:42.142Z,56.13
2023-04-12T19:19:09.181Z,60.78
2023-04-12T19:21:36.563Z,58.83
2023-04-12T19:24:03.760Z,48.63
2023-04-12T19:26:32.158Z,43.13
2023-04-12T19:28:59.393Z,41.75
2023-04-12T19:31:26.736Z,38.65
2023-04-12T19:33:57.583Z,37.13
2023-04-12T19:36:24.993Z,36.92
2023-04-12T19:38:55.137Z,37.05
2023-04-12T19:41:23.110Z,36.33
2023-04-12T19:43:50.904Z,33.45
2023-04-12T19:46:18.440Z,28.13
2023-04-12T19:48:46.496Z,29.85
2023-04-12T19:51:14.112Z,27.20
2023-04-12T19:53:42.215Z,28.40
2023-04-12T19:56:09.884Z,27.42
2023-04-12T19:58:37.454Z,27.60
2023-04-12T20:01:04.892Z,27.75
2023-04-12T20:03:32.075Z,28.88
2023-04-12T20:06:04.698Z,25.77
2023-04-12T20:08:31.966Z,28.25
2023-04-12T20:10:59.680Z,31.80
2023-04-12T20:13:27.467Z,29.27
2023-04-12T20:15:55.050Z,28.23
2023-04-12T20:18:22.244Z,27.95
2023-04-12T20:20:50.042Z,29.60
2023-04-12T20:23:17.235Z,23.88
2023-04-12T20:25:48.983Z,24.77
2023-04-12T20:28:16.288Z,25.27
2023-04-12T20:30:43.537Z,23.08
2023-04-12T20:33:10.720Z,27.80
2023-04-12T20:35:38.465Z,26.63
2023-04-12T20:38:05.815Z,28.60
2023-04-12T20:40:32.939Z,26.42
2023-04-12T20:43:00.308Z,24.13
2023-04-12T20:45:27.404Z,24.02
2023-04-12T20:47:54.461Z,23.15
2023-04-12T20:50:22.785Z,21.50
2023-04-12T20:52:52.339Z,22.45
2023-04-12T20:55:19.800Z,21.10
2023-04-12T20:57:46.860Z,20.70
2023-04-12T21:00:23.894Z,20.42
2023-04-12T21:02:51.233Z,20.70
2023-04-12T21:05:18.291Z,19.52
2023-04-12T21:07:47.171Z,19.55
2023-04-12T21:10:14.987Z,20.13
2023-04-12T21:12:45.168Z,17.88
2023-04-12T21:15:12.801Z,19.55
2023-04-12T21:17:40.791Z,18.60
2023-04-12T21:20:11.666Z,18.52
2023-04-12T21:22:38.828Z,18.08
2023-04-12T21:25:07.590Z,17.48
2023-04-12T21:27:35.340Z,18.83
2023-04-12T21:30:03.173Z,18.67
2023-04-12T21:32:32.748Z,16.00
2023-04-12T21:35:00.226Z,16.58
2023-04-12T21:37:27.253Z,14.38
2023-04-12T21:39:54.365Z,16.15
2023-04-12T21:42:21.361Z,17.48
2023-04-12T21:44:48.373Z,17.52
2023-04-12T21:47:15.466Z,13.63
2023-04-12T21:49:42.443Z,14.23
2023-04-12T21:52:09.343Z,14.63
2023-04-12T21:54:37.223Z,13.30
2023-04-12T21:57:04.808Z,13.98
2023-04-12T21:59:31.786Z,13.85
2023-04-12T22:01:58.813Z,18.15
2023-04-12T22:04:25.844Z,20.00
2023-04-12T22:06:53.031Z,17.75
2023-04-12T22:09:20.582Z,17.25
2023-04-12T22:11:49.230Z,19.10
2023-04-12T22:14:16.183Z,17.20
2023-04-12T22:16:43.252Z,16.98
2023-04-12T22:19:10.261Z,16.92
2023-04-12T22:21:37.448Z,16.58
2023-04-12T22:24:04.697Z,16.75
2023-04-12T22:26:31.715Z,18.45
2023-04-12T22:28:58.664Z,17.08
2023-04-12T22:31:26.309Z,16.33
2023-04-12T22:33:55.101Z,17.33
2023-04-12T22:36:22.619Z,16.45
2023-04-12T22:38:49.813Z,15.90
2023-04-12T22:41:17.382Z,18.05
2023-04-12T22:43:47.803Z,18.42
2023-04-12T22:46:18.935Z,16.83
2023-04-12T22:48:47.861Z,16.50
2023-04-12T22:51:15.408Z,14.35
2023-04-12T22:53:43.700Z,16.20
2023-04-12T22:56:11.468Z,16.73
2023-04-12T22:58:40.403Z,16.88
2023-04-12T23:01:07.833Z,14.55
2023-04-12T23:03:35.056Z,14.40
2023-04-12T23:06:02.181Z,16.10
2023-04-12T23:08:29.471Z,16.13
2023-04-12T23:11:03.060Z,15.38
2023-04-12T23:13:34.109Z,15.60
2023-04-12T23:16:02.258Z,13.88
2023-04-12T23:18:29.581Z,15.23
2023-04-12T23:20:56.625Z,15.80
2023-04-12T23:23:26.580Z,16.42
2023-04-12T23:25:53.629Z,15.50
2023-04-12T23:28:22.078Z,14.25
2023-04-12T23:30:51.130Z,14.48
2023-04-12T23:33:20.539Z,15.38
2023-04-12T23:35:52.706Z,13.73
2023-04-12T23:38:35.114Z,15.65
2023-04-12T23:41:04.317Z,16.05
2023-04-12T23:43:32.868Z,15.48
2023-04-12T23:46:00.472Z,16.30
2023-04-12T23:48:27.626Z,13.10
2023-04-12T23:50:55.006Z,16.17
2023-04-12T23:53:22.225Z,15.82
2023-04-12T23:55:51.351Z,13.57
2023-04-12T23:58:19.580Z,14.25
